createdAt,value
2023-02-26T00:01:31.085Z,69.91
2023-02-26T00:04:00.666Z,70.21
2023-02-26T00:06:29.309Z,70.22
2023-02-26T00:08:56.388Z,70.24
2023-02-26T00:11:23.331Z,71.05
2023-02-26T00:13:50.740Z,70.65
2023-02-26T00:16:31.912Z,70.70
2023-02-26T00:19:01.755Z,70.48
2023-02-26T00:21:29.710Z,70.11
2023-02-26T00:23:56.914Z,70.08
2023-02-26T00:26:25.340Z,70.26
2023-02-26T00:28:52.105Z,70.60
2023-02-26T00:31:20.963Z,70.68
2023-02-26T00:33:47.933Z,70.49
2023-02-26T00:36:24.388Z,70.33
2023-02-26T00:39:18.168Z,70.15
2023-02-26T00:41:45.044Z,70.69
2023-02-26T00:44:12.020Z,70.49
2023-02-26T00:47:11.349Z,71.03
2023-02-26T00:49:40.914Z,71.70
2023-02-26T00:52:15.002Z,70.98
2023-02-26T00:54:41.455Z,70.68
2023-02-26T00:57:08.363Z,71.06
2023-02-26T00:59:35.206Z,71.40
2023-02-26T01:02:01.839Z,71.00
2023-02-26T01:04:28.630Z,70.81
2023-02-26T01:06:58.038Z,71.24
2023-02-26T01:09:36.122Z,71.05
2023-02-26T01:12:08.720Z,71.86
2023-02-26T01:14:36.286Z,71.94
2023-02-26T01:17:11.444Z,71.95
2023-02-26T01:19:51.093Z,71.36
2023-02-26T01:22:28.253Z,70.88
2023-02-26T01:25:02.156Z,70.76
2023-02-26T01:27:28.913Z,71.00
2023-02-26T01:29:55.780Z,70.94
2023-02-26T01:32:30.073Z,70.43
2023-02-26T01:35:20.855Z,71.38
2023-02-26T01:37:53.343Z,71.28
2023-02-26T01:40:50.650Z,70.95
2023-02-26T01:43:27.660Z,71.27
2023-02-26T01:46:09.917Z,71.81
2023-02-26T01:48:44.486Z,71.78
2023-02-26T01:51:11.130Z,72.02
2023-02-26T01:53:37.836Z,71.89
2023-02-26T01:56:17.212Z,72.39
2023-02-26T01:58:48.494Z,72.32
2023-02-26T02:01:15.378Z,72.16
2023-02-26T02:03:43.458Z,73.02
2023-02-26T02:06:17.869Z,72.19
2023-02-26T02:08:45.884Z,72.32
2023-02-26T02:11:14.712Z,71.40
2023-02-26T02:14:05.385Z,71.05
2023-02-26T02:16:48.122Z,71.50
2023-02-26T02:19:43.538Z,71.69
2023-02-26T02:22:44.195Z,71.74
2023-02-26T02:25:10.852Z,71.57
2023-02-26T02:28:03.570Z,71.40
2023-02-26T02:30:39.457Z,71.35
2023-02-26T02:33:18.323Z,71.91
2023-02-26T02:35:55.031Z,71.49
2023-02-26T02:38:43.200Z,72.61
2023-02-26T02:41:18.196Z,72.32
2023-02-26T02:43:48.324Z,71.20
2023-02-26T02:46:26.119Z,70.48
2023-02-26T02:49:03.537Z,71.48
2023-02-26T02:51:37.917Z,71.43
2023-02-26T02:54:16.294Z,70.73
2023-02-26T02:56:58.790Z,71.06
2023-02-26T02:59:32.417Z,70.25
2023-02-26T03:02:14.814Z,72.13
2023-02-26T03:04:41.851Z,71.34
2023-02-26T03:07:09.527Z,71.96
2023-02-26T03:09:36.963Z,71.50
2023-02-26T03:12:04.048Z,72.21
2023-02-26T03:14:32.868Z,73.57
2023-02-26T03:17:13.992Z,72.60
2023-02-26T03:19:58.638Z,72.84
2023-02-26T03:23:03.334Z,71.94
2023-02-26T03:25:39.113Z,71.98
2023-02-26T03:28:32.683Z,72.90
2023-02-26T03:31:10.158Z,71.18
2023-02-26T03:33:57.383Z,72.20
2023-02-26T03:36:42.992Z,70.90
2023-02-26T03:39:25.639Z,70.94
2023-02-26T03:41:58.525Z,69.46
2023-02-26T03:44:33.760Z,70.20
2023-02-26T03:47:08.284Z,70.39
2023-02-26T03:49:46.078Z,70.64
2023-02-26T03:52:14.594Z,70.08
2023-02-26T03:55:19.583Z,71.13
2023-02-26T03:58:12.759Z,70.41
2023-02-26T04:01:04.907Z,70.06
2023-02-26T04:03:41.810Z,69.22
2023-02-26T04:06:09.121Z,70.51
2023-02-26T04:08:36.714Z,69.81
2023-02-26T04:11:12.129Z,70.47
2023-02-26T04:13:39.108Z,69.53
2023-02-26T04:16:06.108Z,69.34
2023-02-26T04:18:33.417Z,69.73
2023-02-26T04:21:00.371Z,69.31
2023-02-26T04:23:27.018Z,70.31
2023-02-26T04:25:53.699Z,70.78
2023-02-26T04:28:20.917Z,71.04
2023-02-26T04:30:48.213Z,69.78
2023-02-26T04:33:16.259Z,69.81
2023-02-26T04:35:43.891Z,69.56
2023-02-26T04:38:18.619Z,69.43
2023-02-26T04:40:47.098Z,69.08
2023-02-26T04:43:14.643Z,69.46
2023-02-26T04:45:50.511Z,70.21
2023-02-26T04:48:20.813Z,69.71
2023-02-26T04:50:48.053Z,70.30
2023-02-26T04:53:17.812Z,69.92
2023-02-26T04:55:44.696Z,70.25
2023-02-26T04:58:11.647Z,70.29
2023-02-26T05:00:38.492Z,70.35
2023-02-26T05:03:05.412Z,69.85
2023-02-26T05:05:35.547Z,69.59
2023-02-26T05:08:02.679Z,68.04
2023-02-26T05:10:29.415Z,69.43
2023-02-26T05:12:56.315Z,69.06
2023-02-26T05:15:23.164Z,69.01
2023-02-26T05:17:49.935Z,69.18
2023-02-26T05:20:16.849Z,69.91
2023-02-26T05:22:43.871Z,69.04
2023-02-26T05:25:14.312Z,68.97
2023-02-26T05:27:44.818Z,69.69
2023-02-26T05:30:14.919Z,67.91
2023-02-26T05:32:43.197Z,68.03
2023-02-26T05:35:10.778Z,69.17
2023-02-26T05:37:38.674Z,68.85
2023-02-26T05:40:12.284Z,67.92
2023-02-26T05:42:39.933Z,68.71
2023-02-26T05:45:07.869Z,69.09
2023-02-26T05:47:35.468Z,68.81
2023-02-26T05:50:06.028Z,69.14
2023-02-26T05:52:35.540Z,69.20
2023-02-26T05:55:12.344Z,68.22
2023-02-26T05:57:39.265Z,68.66
2023-02-26T06:00:07.602Z,68.43
2023-02-26T06:02:41.781Z,69.17
2023-02-26T06:05:09.391Z,69.31
2023-02-26T06:07:36.268Z,69.08
2023-02-26T06:10:03.598Z,67.25
2023-02-26T06:12:30.512Z,67.56
2023-02-26T06:14:57.263Z,65.83
2023-02-26T06:17:24.313Z,66.44
2023-02-26T06:19:52.307Z,66.67
2023-02-26T06:22:19.403Z,65.74
2023-02-26T06:24:46.407Z,66.25
2023-02-26T06:27:13.217Z,64.50
2023-02-26T06:29:40.086Z,64.39
2023-02-26T06:32:09.392Z,65.34
2023-02-26T06:34:38.889Z,66.66
2023-02-26T06:37:05.979Z,65.44
2023-02-26T06:39:32.771Z,64.98
2023-02-26T06:42:02.775Z,64.13
2023-02-26T06:44:29.796Z,63.88
2023-02-26T06:46:56.656Z,64.67
2023-02-26T06:49:35.472Z,64.27
2023-02-26T06:52:27.494Z,63.93
2023-02-26T06:54:54.210Z,63.36
2023-02-26T06:57:24.120Z,63.23
2023-02-26T06:59:54.779Z,63.97
2023-02-26T07:02:24.236Z,63.22
2023-02-26T07:04:51.078Z,62.68
2023-02-26T07:07:18.059Z,62.88
2023-02-26T07:09:46.056Z,62.03
2023-02-26T07:12:17.278Z,62.31
2023-02-26T07:14:46.457Z,62.27
2023-02-26T07:17:20.542Z,61.98
2023-02-26T07:19:50.197Z,62.35
2023-02-26T07:22:22.229Z,62.05
2023-02-26T07:25:00.834Z,61.89
2023-02-26T07:27:27.705Z,61.44
2023-02-26T07:29:54.525Z,61.84
2023-02-26T07:32:22.079Z,62.89
2023-02-26T07:34:48.730Z,62.68
2023-02-26T07:37:15.511Z,61.19
2023-02-26T07:39:42.279Z,61.49
2023-02-26T07:42:09.670Z,61.09
2023-02-26T07:44:36.443Z,61.18
2023-02-26T07:47:03.586Z,62.04
2023-02-26T07:49:30.549Z,60.92
2023-02-26T07:51:57.113Z,61.89
2023-02-26T07:54:23.918Z,61.78
2023-02-26T07:56:50.768Z,62.69
2023-02-26T07:59:20.670Z,61.66
2023-02-26T08:01:47.613Z,61.57
2023-02-26T08:04:14.730Z,60.78
2023-02-26T08:06:41.565Z,61.26
2023-02-26T08:09:08.449Z,60.37
2023-02-26T08:11:39.808Z,59.32
2023-02-26T08:14:12.358Z,59.43
2023-02-26T08:16:42.002Z,59.18
2023-02-26T08:19:26.266Z,59.42
2023-02-26T08:22:13.293Z,58.50
2023-02-26T08:24:40.158Z,58.74
2023-02-26T08:27:07.033Z,59.06
2023-02-26T08:29:33.609Z,58.05
2023-02-26T08:32:00.298Z,58.26
2023-02-26T08:34:27.092Z,58.40
2023-02-26T08:36:54.235Z,57.97
2023-02-26T08:39:21.157Z,58.20
2023-02-26T08:41:47.948Z,59.06
2023-02-26T08:44:14.627Z,58.88
2023-02-26T08:46:41.446Z,57.61
2023-02-26T08:49:08.606Z,57.67
2023-02-26T08:51:35.246Z,58.57
2023-02-26T08:54:02.246Z,58.83
2023-02-26T08:56:28.972Z,58.02
2023-02-26T08:58:55.555Z,57.26
2023-02-26T09:01:22.196Z,57.18
2023-02-26T09:03:49.069Z,56.95
2023-02-26T09:06:15.580Z,56.82
2023-02-26T09:08:42.208Z,57.64
2023-02-26T09:11:08.794Z,57.80
2023-02-26T09:13:35.322Z,56.99
2023-02-26T09:16:02.127Z,56.70
2023-02-26T09:18:29.134Z,56.51
2023-02-26T09:20:55.724Z,55.66
2023-02-26T09:23:22.352Z,56.32
2023-02-26T09:25:54.586Z,55.68
2023-02-26T09:28:24.056Z,54.30
2023-02-26T09:30:55.172Z,53.57
2023-02-26T09:33:22.988Z,53.49
2023-02-26T09:35:51.142Z,53.67
2023-02-26T09:38:18.818Z,53.04
2023-02-26T09:40:48.492Z,53.57
2023-02-26T09:43:42.858Z,54.06
2023-02-26T09:46:29.212Z,52.78
2023-02-26T09:49:06.797Z,53.49
2023-02-26T09:51:35.893Z,52.58
2023-02-26T09:54:14.935Z,52.62
2023-02-26T09:56:41.949Z,52.47
2023-02-26T09:59:10.229Z,52.14
2023-02-26T10:02:05.202Z,51.60
2023-02-26T10:04:40.950Z,50.78
2023-02-26T10:07:22.041Z,52.05
2023-02-26T10:09:55.387Z,52.00
2023-02-26T10:12:28.384Z,51.58
2023-02-26T10:15:09.600Z,51.74
2023-02-26T10:18:01.006Z,50.90
2023-02-26T10:20:49.424Z,50.99
2023-02-26T10:23:23.997Z,50.40
2023-02-26T10:26:03.019Z,50.65
2023-02-26T10:28:35.553Z,49.46
2023-02-26T10:31:09.652Z,49.70
2023-02-26T10:33:40.129Z,49.67
2023-02-26T10:36:25.083Z,49.31
2023-02-26T10:38:59.172Z,49.25
2023-02-26T10:41:28.552Z,49.06
2023-02-26T10:44:04.808Z,48.11
2023-02-26T10:46:50.578Z,49.12
2023-02-26T10:49:40.542Z,48.98
2023-02-26T10:52:19.581Z,49.57
2023-02-26T10:55:01.184Z,48.33
2023-02-26T10:57:33.229Z,48.64
2023-02-26T11:00:01.108Z,49.08
2023-02-26T11:02:39.163Z,48.28
2023-02-26T11:05:15.289Z,49.15
2023-02-26T11:07:43.697Z,49.18
2023-02-26T11:10:17.211Z,49.19
2023-02-26T11:12:43.979Z,49.21
2023-02-26T11:15:30.050Z,49.30
2023-02-26T11:17:58.364Z,49.08
2023-02-26T11:20:42.877Z,49.14
2023-02-26T11:23:30.777Z,49.66
2023-02-26T11:26:06.154Z,49.42
2023-02-26T11:28:44.198Z,51.13
2023-02-26T11:31:14.961Z,50.06
2023-02-26T11:33:55.702Z,51.32
2023-02-26T11:36:25.234Z,49.88
2023-02-26T11:39:17.567Z,50.41
2023-02-26T11:41:47.061Z,50.09
2023-02-26T11:44:24.414Z,49.87
2023-02-26T11:46:57.987Z,49.31
2023-02-26T11:49:27.867Z,49.34
2023-02-26T11:52:20.313Z,48.53
2023-02-26T11:54:51.576Z,47.51
2023-02-26T11:57:26.801Z,48.70
2023-02-26T11:59:56.021Z,48.80
2023-02-26T12:02:25.697Z,47.49
2023-02-26T12:05:00.733Z,48.31
2023-02-26T12:07:28.378Z,48.17
2023-02-26T12:09:55.254Z,47.52
2023-02-26T12:12:38.423Z,46.85
2023-02-26T12:15:17.864Z,46.79
2023-02-26T12:18:15.918Z,47.28
2023-02-26T12:21:21.326Z,46.76
2023-02-26T12:24:03.212Z,46.33
2023-02-26T12:26:34.696Z,46.62
2023-02-26T12:29:15.914Z,46.67
2023-02-26T12:32:03.385Z,47.08
2023-02-26T12:35:21.743Z,47.13
2023-02-26T12:38:25.853Z,47.12
2023-02-26T12:41:21.465Z,47.97
2023-02-26T12:43:51.266Z,47.16
2023-02-26T12:46:29.897Z,47.36
2023-02-26T12:49:17.789Z,46.68
2023-02-26T12:52:17.829Z,48.00
2023-02-26T12:55:18.464Z,47.49
2023-02-26T12:58:09.462Z,46.90
2023-02-26T13:01:05.379Z,46.88
2023-02-26T13:04:04.431Z,46.15
2023-02-26T13:06:43.590Z,46.64
2023-02-26T13:09:32.322Z,46.87
2023-02-26T13:12:26.865Z,45.83
2023-02-26T13:15:10.579Z,45.44
2023-02-26T13:17:44.363Z,45.01
2023-02-26T13:20:18.842Z,44.51
2023-02-26T13:23:20.407Z,44.81
2023-02-26T13:25:50.746Z,44.34
2023-02-26T13:29:09.579Z,45.40
2023-02-26T13:31:49.308Z,44.00
2023-02-26T13:34:23.176Z,43.33
2023-02-26T13:36:50.929Z,43.73
2023-02-26T13:39:42.353Z,43.72
2023-02-26T13:42:21.142Z,43.36
2023-02-26T13:45:18.359Z,42.47
2023-02-26T13:48:16.248Z,42.04
2023-02-26T13:50:58.510Z,43.76
2023-02-26T13:53:28.227Z,43.00
2023-02-26T13:56:05.551Z,42.76
2023-02-26T13:58:40.979Z,42.66
2023-02-26T14:01:16.046Z,43.28
2023-02-26T14:04:05.326Z,43.39
2023-02-26T14:06:40.035Z,42.74
2023-02-26T14:09:29.212Z,42.99
2023-02-26T14:11:55.775Z,42.96
2023-02-26T14:14:22.308Z,43.34
2023-02-26T14:17:08.864Z,43.34
2023-02-26T14:19:43.723Z,43.86
2023-02-26T14:22:33.920Z,44.53
2023-02-26T14:25:12.645Z,43.70
2023-02-26T14:27:44.064Z,43.59
2023-02-26T14:30:10.544Z,43.69
2023-02-26T14:40:02.464Z,43.46
2023-02-26T14:42:44.892Z,43.31
2023-02-26T14:45:17.669Z,43.62
2023-02-26T14:47:52.501Z,42.82
2023-02-26T14:50:24.044Z,43.32
2023-02-26T14:53:24.435Z,43.88
2023-02-26T14:56:17.199Z,43.73
2023-02-26T14:59:07.979Z,43.80
2023-02-26T15:02:04.736Z,42.83
2023-02-26T15:04:42.898Z,42.35
2023-02-26T15:07:24.934Z,42.47
2023-02-26T15:10:21.046Z,42.50
2023-02-26T15:13:05.924Z,42.94
2023-02-26T15:16:10.382Z,42.31
2023-02-26T15:18:49.241Z,42.69
2023-02-26T15:21:32.414Z,43.15
2023-02-26T15:24:00.126Z,43.32
2023-02-26T15:26:35.389Z,43.76
2023-02-26T15:29:08.363Z,42.90
2023-02-26T15:31:40.934Z,43.29
2023-02-26T15:34:12.648Z,43.11
2023-02-26T15:36:45.008Z,44.20
2023-02-26T15:39:16.050Z,43.63
2023-02-26T15:41:43.914Z,43.35
2023-02-26T15:44:16.480Z,45.07
2023-02-26T15:46:47.415Z,45.14
2023-02-26T15:49:19.259Z,44.18
2023-02-26T15:51:47.296Z,44.05
2023-02-26T15:54:18.672Z,43.54
2023-02-26T15:56:47.492Z,44.67
2023-02-26T15:59:21.091Z,44.84
2023-02-26T16:01:50.337Z,44.23
2023-02-26T16:04:20.440Z,44.93
2023-02-26T16:06:50.165Z,44.86
2023-02-26T16:09:28.690Z,44.93
2023-02-26T16:11:58.794Z,44.53
2023-02-26T16:14:30.009Z,44.83
2023-02-26T16:16:57.909Z,44.07
2023-02-26T16:19:35.683Z,44.01
2023-02-26T16:22:24.873Z,44.98
2023-02-26T16:25:01.265Z,44.81
2023-02-26T16:27:30.910Z,43.97
2023-02-26T16:30:02.017Z,44.32
2023-02-26T16:32:35.131Z,43.85
2023-02-26T16:35:16.458Z,45.39
2023-02-26T16:37:50.337Z,44.86
2023-02-26T16:40:27.376Z,44.58
2023-02-26T16:43:31.183Z,44.43
2023-02-26T16:46:16.713Z,44.17
2023-02-26T16:48:57.370Z,44.64
2023-02-26T16:52:19.595Z,44.25
2023-02-26T16:55:12.964Z,44.14
2023-02-26T16:58:00.432Z,43.97
2023-02-26T17:00:31.758Z,44.55
2023-02-26T17:03:35.364Z,45.40
2023-02-26T17:06:18.572Z,45.39
2023-02-26T17:08:54.273Z,45.09
2023-02-26T17:11:43.545Z,44.39
2023-02-26T17:14:57.872Z,45.24
2023-02-26T17:17:37.347Z,44.88
2023-02-26T17:20:25.981Z,44.77
2023-02-26T17:23:06.501Z,44.67
2023-02-26T17:26:06.961Z,44.83
2023-02-26T17:29:09.436Z,45.49
2023-02-26T17:31:46.926Z,45.36
2023-02-26T17:34:21.324Z,45.46
2023-02-26T17:36:49.049Z,47.37
2023-02-26T17:39:18.388Z,45.82
2023-02-26T17:41:45.950Z,46.41
2023-02-26T17:44:58.435Z,45.77
2023-02-26T17:47:33.835Z,46.21
2023-02-26T17:50:42.200Z,48.72
2023-02-26T17:53:17.452Z,47.97
2023-02-26T17:55:59.167Z,48.83
2023-02-26T17:58:43.765Z,46.80
2023-02-26T18:01:18.530Z,45.72
2023-02-26T18:03:45.617Z,46.72
2023-02-26T18:06:17.635Z,46.16
2023-02-26T18:08:48.812Z,47.02
2023-02-26T18:11:17.365Z,46.85
2023-02-26T18:13:52.657Z,46.83
2023-02-26T18:16:40.902Z,46.57
2023-02-26T18:19:29.153Z,46.53
2023-02-26T18:21:58.583Z,46.00
2023-02-26T18:24:25.563Z,45.82
2023-02-26T18:26:52.830Z,45.90
2023-02-26T18:29:20.847Z,46.62
2023-02-26T18:31:47.663Z,46.46
2023-02-26T18:34:14.379Z,46.68
2023-02-26T18:36:41.596Z,46.61
2023-02-26T18:39:13.316Z,47.03
2023-02-26T18:41:39.881Z,45.85
2023-02-26T18:44:06.716Z,45.67
2023-02-26T18:46:36.818Z,47.12
2023-02-26T18:49:03.575Z,47.77
2023-02-26T18:51:30.778Z,46.57
2023-02-26T18:53:57.505Z,45.75
2023-02-26T18:56:24.162Z,45.51
2023-02-26T18:58:50.998Z,46.37
2023-02-26T19:01:17.818Z,46.51
2023-02-26T19:03:44.692Z,47.19
2023-02-26T19:06:11.734Z,46.08
2023-02-26T19:08:38.441Z,46.32
2023-02-26T19:11:05.162Z,45.79
2023-02-26T19:13:32.001Z,45.82
2023-02-26T19:15:58.797Z,46.85
2023-02-26T19:18:25.652Z,46.38
2023-02-26T19:20:52.693Z,46.10
2023-02-26T19:23:19.793Z,46.32
2023-02-26T19:25:46.536Z,46.53
2023-02-26T19:28:13.174Z,46.05
2023-02-26T19:30:39.792Z,48.18
2023-02-26T19:33:07.276Z,46.98
2023-02-26T19:35:34.554Z,47.92
2023-02-26T19:38:01.164Z,47.75
2023-02-26T19:40:28.236Z,47.12
2023-02-26T19:42:55.539Z,46.99
2023-02-26T19:45:22.221Z,47.44
2023-02-26T19:47:48.806Z,47.48
2023-02-26T19:50:16.761Z,48.12
2023-02-26T19:52:43.340Z,47.94
2023-02-26T19:55:10.963Z,48.52
2023-02-26T19:57:37.647Z,47.75
2023-02-26T20:00:05.428Z,47.74
2023-02-26T20:02:38.934Z,48.29
2023-02-26T20:05:07.673Z,49.50
2023-02-26T20:07:34.644Z,48.97
2023-02-26T20:10:01.321Z,48.69
2023-02-26T20:12:30.333Z,48.69
2023-02-26T20:14:57.877Z,48.79
2023-02-26T20:17:24.490Z,49.83
2023-02-26T20:19:51.182Z,50.67
2023-02-26T20:22:18.065Z,49.94
2023-02-26T20:24:47.335Z,49.49
2023-02-26T20:27:14.022Z,49.87
2023-02-26T20:29:40.794Z,49.56
2023-02-26T20:32:07.563Z,49.22
2023-02-26T20:34:34.272Z,48.79
2023-02-26T20:37:01.144Z,48.83
2023-02-26T20:39:27.946Z,49.66
2023-02-26T20:41:54.556Z,49.19
2023-02-26T20:44:21.223Z,50.08
2023-02-26T20:46:47.895Z,49.92
2023-02-26T20:49:14.445Z,51.40
2023-02-26T20:51:42.296Z,53.16
2023-02-26T20:54:12.795Z,54.10
2023-02-26T20:56:39.310Z,54.23
2023-02-26T20:59:05.815Z,53.98
2023-02-26T21:01:35.683Z,55.70
2023-02-26T21:04:05.010Z,55.96
2023-02-26T21:06:32.389Z,55.37
2023-02-26T21:09:00.226Z,55.66
2023-02-26T21:11:30.930Z,55.55
2023-02-26T21:13:58.658Z,56.81
2023-02-26T21:16:28.267Z,56.77
2023-02-26T21:18:55.736Z,56.60
2023-02-26T21:21:22.472Z,57.38
2023-02-26T21:23:50.144Z,56.87
2023-02-26T21:26:17.008Z,57.37
2023-02-26T21:28:48.677Z,57.67
2023-02-26T21:31:20.032Z,57.86
